Time;durP1;ratioP1;P1;durP2;ratioP2;P2;SDS_P1;SDS_P2;PMS_P1;PMS_P2;Temp;Humidity;BMP_temperature;BMP_pressure;BME280_temperature;BME280_humidity;BME280_pressure;Samples;Min_cycle;Max_cycle;Signal;HPM_P1;HPM_P2
2024/03/19 00:00:44;;;;;;;6.03;2.60;;;2.00;99.90;;;;;;4163097;28;20546;-78
2024/03/19 00:02:46;;;;;;;4.40;2.43;;;2.00;99.90;;;;;;4165025;28;20430;-78
2024/03/19 00:04:47;;;;;;;4.10;2.40;;;2.20;99.90;;;;;;4164939;28;20820;-78
2024/03/19 00:06:49;;;;;;;7.43;2.90;;;1.90;99.90;;;;;;4165222;28;20477;-78
2024/03/19 00:08:51;;;;;;;6.07;2.70;;;1.90;99.90;;;;;;4162475;28;20560;-78
2024/03/19 00:10:55;;;;;;;7.47;2.80;;;1.90;99.90;;;;;;4162310;28;20454;-77
2024/03/19 00:12:59;;;;;;;5.57;2.70;;;1.80;99.90;;;;;;4162864;28;20445;-78
2024/03/19 00:15:00;;;;;;;6.07;2.83;;;1.80;99.90;;;;;;4163657;28;20485;-77
2024/03/19 00:17:02;;;;;;;9.80;3.10;;;1.70;99.90;;;;;;4173628;28;20446;-76
2024/03/19 00:19:03;;;;;;;5.63;2.70;;;1.70;99.90;;;;;;4161172;28;20237;-78
2024/03/19 00:21:05;;;;;;;7.80;2.87;;;1.70;99.90;;;;;;4158245;28;20450;-77
2024/03/19 00:23:07;;;;;;;5.27;2.63;;;1.70;99.90;;;;;;4162066;28;20203;-78
2024/03/19 00:25:09;;;;;;;5.37;2.67;;;1.70;99.90;;;;;;4161848;28;20474;-78
2024/03/19 00:27:12;;;;;;;5.90;3.00;;;1.70;99.90;;;;;;4165595;28;20460;-78
2024/03/19 00:29:15;;;;;;;6.63;2.47;;;1.70;99.90;;;;;;4166958;28;20473;-78
2024/03/19 00:31:17;;;;;;;6.63;2.80;;;1.60;99.90;;;;;;4164013;28;20557;-78
2024/03/19 00:33:19;;;;;;;6.50;3.37;;;1.60;99.90;;;;;;4166105;28;20454;-78
2024/03/19 00:35:20;;;;;;;5.00;3.00;;;1.60;99.90;;;;;;4157189;28;20843;-78
2024/03/19 00:37:22;;;;;;;6.30;2.70;;;1.50;99.90;;;;;;4164598;28;20488;-77
2024/03/19 00:39:24;;;;;;;4.90;2.63;;;1.50;99.90;;;;;;4162996;28;20295;-78
2024/03/19 00:41:27;;;;;;;4.87;2.50;;;1.50;99.90;;;;;;4161980;28;20524;-78
2024/03/19 00:43:29;;;;;;;6.67;2.90;;;1.40;99.90;;;;;;4162317;28;20549;-77
2024/03/19 00:45:32;;;;;;;9.90;3.23;;;1.40;99.90;;;;;;4162100;28;20821;-77
2024/03/19 00:47:34;;;;;;;4.77;2.87;;;1.70;99.90;;;;;;4164435;28;20450;-77
2024/03/19 00:49:36;;;;;;;6.87;3.10;;;1.40;99.90;;;;;;4166317;28;20457;-77
2024/03/19 00:51:38;;;;;;;5.70;2.90;;;1.40;99.90;;;;;;4166465;28;20541;-77
2024/03/19 00:53:40;;;;;;;6.60;3.10;;;1.50;99.90;;;;;;4159784;28;20557;-77
2024/03/19 00:55:42;;;;;;;6.33;3.13;;;1.30;99.90;;;;;;4163283;28;20446;-77
2024/03/19 00:57:44;;;;;;;7.30;3.13;;;1.30;99.90;;;;;;4154862;28;21310;-77
2024/03/19 00:59:45;;;;;;;5.40;3.13;;;1.30;99.90;;;;;;4164615;28;20509;-77
2024/03/19 01:01:48;;;;;;;6.13;3.20;;;1.30;99.90;;;;;;4162769;28;20469;-77
2024/03/19 01:03:50;;;;;;;7.33;3.20;;;1.30;99.90;;;;;;4163282;28;20192;-77
2024/03/19 01:05:52;;;;;;;6.10;3.13;;;1.30;99.90;;;;;;4162466;28;21075;-77
2024/03/19 01:07:54;;;;;;;6.53;2.63;;;1.30;99.90;;;;;;4163922;28;20474;-77
2024/03/19 01:09:55;;;;;;;6.87;3.40;;;1.40;99.90;;;;;;4162949;28;20454;-77
2024/03/19 01:11:57;;;;;;;5.20;2.70;;;1.30;99.90;;;;;;4154448;28;20446;-78
2024/03/19 01:14:00;;;;;;;7.37;3.07;;;1.30;99.90;;;;;;4160099;28;20511;-78
2024/03/19 01:16:01;;;;;;;4.47;2.87;;;1.30;99.90;;;;;;4160827;28;20481;-78
2024/03/19 01:18:05;;;;;;;4.63;2.90;;;1.30;99.90;;;;;;4154339;28;20465;-78
2024/03/19 01:20:10;;;;;;;5.00;2.53;;;1.30;99.90;;;;;;4158582;28;20241;-78
2024/03/19 01:22:11;;;;;;;6.70;3.40;;;1.30;99.90;;;;;;4162886;28;20954;-79
2024/03/19 01:24:13;;;;;;;5.97;3.03;;;1.30;99.90;;;;;;4155069;28;20451;-79
2024/03/19 01:26:15;;;;;;;7.13;3.03;;;1.30;99.90;;;;;;4156559;28;20528;-78
2024/03/19 01:28:17;;;;;;;6.20;3.07;;;1.40;99.90;;;;;;4159483;28;20458;-77
2024/03/19 01:30:18;;;;;;;5.73;3.30;;;1.40;99.90;;;;;;4156703;28;20822;-76
2024/03/19 01:32:20;;;;;;;5.90;3.20;;;1.30;99.90;;;;;;4164281;28;20504;-76
2024/03/19 01:34:22;;;;;;;7.30;3.33;;;1.30;99.90;;;;;;4175702;28;20458;-76
2024/03/19 01:36:24;;;;;;;6.27;3.10;;;1.30;99.90;;;;;;4167529;28;20945;-76
2024/03/19 01:38:25;;;;;;;10.80;3.60;;;1.30;99.90;;;;;;4173903;28;20479;-76
2024/03/19 01:40:27;;;;;;;6.13;3.40;;;1.30;99.90;;;;;;4174918;28;20446;-77
2024/03/19 01:42:29;;;;;;;6.53;3.17;;;1.30;99.90;;;;;;4164758;28;21008;-77
2024/03/19 01:44:31;;;;;;;8.63;3.60;;;1.30;99.90;;;;;;4163001;28;20454;-77
2024/03/19 01:46:32;;;;;;;4.67;2.67;;;1.20;99.90;;;;;;4157983;28;21005;-78
2024/03/19 01:48:35;;;;;;;7.33;3.40;;;1.20;99.90;;;;;;4158647;28;20468;-78
2024/03/19 01:50:39;;;;;;;7.33;3.53;;;1.20;99.90;;;;;;4165579;28;20513;-78
2024/03/19 01:52:43;;;;;;;6.17;2.90;;;1.20;99.90;;;;;;4167040;28;20985;-78
2024/03/19 01:54:45;;;;;;;8.53;3.37;;;1.10;99.90;;;;;;4168401;28;20454;-78
2024/03/19 01:56:48;;;;;;;6.73;3.30;;;1.20;99.90;;;;;;4167314;28;20544;-78
2024/03/19 01:58:50;;;;;;;6.60;3.50;;;1.20;99.90;;;;;;4162129;28;20465;-78
2024/03/19 02:00:51;;;;;;;5.70;3.20;;;1.20;99.90;;;;;;4166180;28;20481;-78
2024/03/19 02:02:53;;;;;;;6.07;3.33;;;1.10;99.90;;;;;;4167874;28;20430;-78
2024/03/19 02:05:13;;;;;;;7.80;3.60;;;1.10;99.90;;;;;;4162058;28;20540;-78
2024/03/19 02:07:22;;;;;;;8.03;3.70;;;1.10;99.90;;;;;;4166006;28;20456;-78
2024/03/19 02:09:24;;;;;;;8.43;3.47;;;1.10;99.90;;;;;;4165074;28;20545;-78
2024/03/19 02:11:26;;;;;;;7.23;3.60;;;1.00;99.90;;;;;;4182058;28;21251;-78
2024/03/19 02:13:28;;;;;;;6.23;3.47;;;1.00;99.90;;;;;;4169037;28;20553;-78
2024/03/19 02:15:30;;;;;;;8.07;3.57;;;1.00;99.90;;;;;;4165234;28;20453;-78
2024/03/19 02:17:35;;;;;;;8.37;3.50;;;0.90;99.90;;;;;;4163632;28;20868;-78
2024/03/19 02:19:44;;;;;;;7.87;3.20;;;0.90;99.90;;;;;;4163276;28;20442;-78
2024/03/19 02:21:46;;;;;;;7.87;3.60;;;1.00;99.90;;;;;;4166696;28;20446;-78
2024/03/19 02:23:48;;;;;;;5.73;3.70;;;0.90;99.90;;;;;;4173362;28;20458;-78
2024/03/19 02:25:51;;;;;;;5.77;3.30;;;1.00;99.90;;;;;;4167174;28;20489;-78
2024/03/19 02:27:52;;;;;;;7.63;3.97;;;1.00;99.90;;;;;;4166306;28;20449;-78
2024/03/19 02:29:53;;;;;;;6.20;3.23;;;1.00;99.90;;;;;;4169469;28;20544;-78
2024/03/19 02:31:54;;;;;;;8.13;3.67;;;1.00;99.90;;;;;;4166386;28;20219;-79
2024/03/19 02:33:57;;;;;;;9.13;4.27;;;1.00;99.90;;;;;;4167095;28;20504;-78
2024/03/19 02:35:59;;;;;;;8.77;3.73;;;1.00;99.90;;;;;;4173498;28;20217;-76
2024/03/19 02:38:01;;;;;;;6.17;3.57;;;1.00;99.90;;;;;;4176148;28;20842;-78
2024/03/19 02:40:05;;;;;;;6.57;3.27;;;1.00;99.90;;;;;;4162744;28;20465;-77
2024/03/19 02:42:07;;;;;;;7.43;3.40;;;1.00;99.90;;;;;;4164062;28;20480;-77
2024/03/19 02:44:09;;;;;;;10.13;3.83;;;1.00;99.90;;;;;;4156114;28;20458;-77
2024/03/19 02:46:11;;;;;;;6.93;3.17;;;1.00;99.90;;;;;;4169021;28;20523;-77
2024/03/19 02:48:14;;;;;;;6.53;3.33;;;1.00;99.90;;;;;;4162172;28;20509;-77
2024/03/19 02:50:16;;;;;;;7.77;3.83;;;1.00;99.90;;;;;;4168194;28;20933;-77
2024/03/19 02:52:18;;;;;;;8.33;3.33;;;1.00;99.90;;;;;;4165115;28;20482;-76
2024/03/19 02:54:20;;;;;;;6.90;3.10;;;1.00;99.90;;;;;;4165595;28;20504;-76
2024/03/19 02:56:23;;;;;;;7.37;3.50;;;1.00;99.90;;;;;;4164675;28;20434;-76
2024/03/19 02:58:24;;;;;;;8.63;4.40;;;1.00;99.90;;;;;;4163584;28;20473;-76
2024/03/19 03:00:26;;;;;;;7.70;4.00;;;1.00;99.90;;;;;;4163233;28;20473;-77
2024/03/19 03:02:29;;;;;;;8.60;4.00;;;1.00;99.90;;;;;;4164215;28;20517;-77
2024/03/19 03:04:31;;;;;;;7.17;3.53;;;1.00;99.90;;;;;;4165351;28;20462;-77
2024/03/19 03:06:33;;;;;;;8.10;3.93;;;0.90;99.90;;;;;;4163809;28;20789;-77
2024/03/19 03:08:35;;;;;;;6.57;3.53;;;0.90;99.90;;;;;;4162899;28;21033;-77
2024/03/19 03:10:37;;;;;;;7.33;3.63;;;0.90;99.90;;;;;;4168877;28;20856;-77
2024/03/19 03:12:41;;;;;;;10.70;4.53;;;0.80;99.90;;;;;;4159238;28;21034;-77
2024/03/19 03:14:43;;;;;;;7.13;4.00;;;0.90;99.90;;;;;;4158280;28;20486;-77
2024/03/19 03:16:45;;;;;;;7.63;3.80;;;0.80;99.90;;;;;;4159124;28;20469;-77
2024/03/19 03:18:46;;;;;;;6.70;3.77;;;0.80;99.90;;;;;;4163451;28;20468;-77
2024/03/19 03:20:48;;;;;;;6.53;4.20;;;0.80;99.90;;;;;;4165741;28;20469;-77
2024/03/19 03:22:49;;;;;;;10.17;4.03;;;0.70;99.90;;;;;;4164460;28;20630;-77
2024/03/19 03:24:51;;;;;;;8.23;3.90;;;0.70;99.90;;;;;;4164854;28;20442;-77
2024/03/19 03:26:53;;;;;;;8.10;4.20;;;0.70;99.90;;;;;;4171856;28;20264;-77
2024/03/19 03:28:58;;;;;;;9.27;3.87;;;0.80;99.90;;;;;;4159362;28;20509;-78
2024/03/19 03:31:01;;;;;;;5.17;3.60;;;0.70;99.90;;;;;;4164225;28;20453;-78
2024/03/19 03:33:04;;;;;;;6.30;4.13;;;0.70;99.90;;;;;;4162897;28;20473;-78
2024/03/19 03:35:07;;;;;;;7.10;3.80;;;0.70;99.90;;;;;;4163992;28;20870;-78
2024/03/19 03:37:09;;;;;;;7.73;4.30;;;0.70;99.90;;;;;;4164579;28;20850;-78
2024/03/19 03:39:12;;;;;;;8.70;3.93;;;0.70;99.90;;;;;;4161807;28;20469;-78
2024/03/19 03:41:14;;;;;;;7.63;4.13;;;0.70;99.90;;;;;;4170085;28;20507;-78
2024/03/19 03:43:15;;;;;;;9.40;4.37;;;0.70;99.90;;;;;;4164371;28;20449;-78
2024/03/19 03:45:20;;;;;;;7.93;3.83;;;0.70;99.90;;;;;;4166827;28;20503;-79
2024/03/19 03:47:22;;;;;;;7.80;4.40;;;0.70;99.90;;;;;;4164097;28;20935;-79
2024/03/19 03:49:30;;;;;;;12.00;4.53;;;0.70;99.90;;;;;;4169727;28;20445;-79
2024/03/19 03:51:38;;;;;;;6.87;4.00;;;0.60;99.90;;;;;;4168460;28;20469;-78
2024/03/19 03:53:40;;;;;;;8.20;4.10;;;0.60;99.90;;;;;;4169503;28;20450;-79
2024/03/19 03:55:42;;;;;;;7.40;3.80;;;0.60;99.90;;;;;;4170379;28;20934;-79
2024/03/19 03:57:45;;;;;;;9.23;4.53;;;0.50;99.90;;;;;;4163154;28;20470;-79
2024/03/19 03:59:47;;;;;;;6.63;3.73;;;0.50;99.90;;;;;;4164197;28;20454;-79
2024/03/19 04:01:51;;;;;;;9.27;4.57;;;0.50;99.90;;;;;;4167494;28;20524;-79
2024/03/19 04:03:55;;;;;;;6.23;4.23;;;0.40;99.90;;;;;;4162658;28;20456;-79
2024/03/19 04:05:56;;;;;;;7.17;3.97;;;0.40;99.90;;;;;;4163884;28;20454;-79
2024/03/19 04:08:01;;;;;;;6.90;4.10;;;0.40;99.90;;;;;;4175878;28;20519;-79
2024/03/19 04:10:03;;;;;;;10.30;4.10;;;0.40;99.90;;;;;;4165813;28;20450;-79
2024/03/19 04:12:05;;;;;;;8.03;4.00;;;0.30;99.90;;;;;;4164587;28;20877;-78
2024/03/19 04:14:07;;;;;;;8.33;4.20;;;0.30;99.90;;;;;;4161277;28;20522;-78
2024/03/19 04:16:09;;;;;;;7.13;3.90;;;0.30;99.90;;;;;;4157015;28;20462;-78
2024/03/19 04:18:12;;;;;;;8.60;4.27;;;0.20;99.90;;;;;;4162001;28;20481;-78
2024/03/19 04:20:15;;;;;;;9.63;4.67;;;0.20;99.90;;;;;;4175312;28;20457;-78
2024/03/19 04:22:16;;;;;;;7.13;4.00;;;0.20;99.90;;;;;;4157319;28;20458;-78
2024/03/19 04:24:18;;;;;;;9.93;4.50;;;0.20;99.90;;;;;;4169611;28;20503;-78
2024/03/19 04:26:20;;;;;;;8.47;4.47;;;0.10;99.90;;;;;;4162748;28;20218;-78
2024/03/19 04:28:21;;;;;;;9.67;4.73;;;0.10;99.90;;;;;;4158210;28;21153;-78
2024/03/19 04:30:23;;;;;;;7.77;4.47;;;0.10;99.90;;;;;;4165913;28;20503;-78
2024/03/19 04:32:26;;;;;;;7.73;4.37;;;0.10;99.90;;;;;;4163194;28;20547;-78
2024/03/19 04:34:29;;;;;;;8.50;4.33;;;0.10;99.90;;;;;;4162740;28;20468;-77
2024/03/19 04:36:31;;;;;;;8.37;4.70;;;0.10;99.90;;;;;;4160016;28;20487;-77
2024/03/19 04:38:33;;;;;;;8.47;4.37;;;0.10;99.90;;;;;;4163902;28;20493;-77
2024/03/19 04:40:35;;;;;;;12.00;5.10;;;0.00;99.90;;;;;;4163271;28;20449;-77
2024/03/19 04:42:36;;;;;;;10.23;4.50;;;0.00;99.90;;;;;;4162474;28;21040;-78
2024/03/19 04:44:38;;;;;;;10.97;5.17;;;0.00;99.90;;;;;;4162286;28;20442;-77
2024/03/19 04:46:40;;;;;;;10.30;4.80;;;0.00;99.90;;;;;;4165203;28;20257;-78
2024/03/19 04:48:42;;;;;;;8.03;4.33;;;0.00;99.90;;;;;;4163312;28;20473;-78
2024/03/19 04:50:45;;;;;;;9.17;4.97;;;-0.10;99.90;;;;;;4155537;28;20556;-78
2024/03/19 04:52:47;;;;;;;11.20;4.97;;;-0.10;99.90;;;;;;4164104;28;20488;-77
2024/03/19 04:54:49;;;;;;;10.67;4.97;;;-0.10;99.90;;;;;;4163129;28;20468;-78
2024/03/19 04:56:50;;;;;;;9.73;4.97;;;-0.10;99.90;;;;;;4162145;28;20851;-78
2024/03/19 04:58:52;;;;;;;8.43;4.67;;;-0.10;99.90;;;;;;4160349;28;20507;-79
2024/03/19 05:00:54;;;;;;;13.77;5.20;;;-0.10;99.90;;;;;;4160025;28;20497;-78
2024/03/19 05:02:56;;;;;;;11.40;4.83;;;-0.10;99.90;;;;;;4165013;28;20499;-78
2024/03/19 05:04:58;;;;;;;10.77;5.60;;;-0.10;99.90;;;;;;4156063;28;20482;-78
2024/03/19 05:07:01;;;;;;;9.07;5.20;;;-0.10;99.90;;;;;;4157179;28;20507;-78
2024/03/19 05:09:05;;;;;;;10.07;5.30;;;-0.20;99.90;;;;;;4160281;28;20575;-78
2024/03/19 05:11:08;;;;;;;11.73;5.33;;;-0.20;99.90;;;;;;4168184;28;20455;-78
2024/03/19 05:13:09;;;;;;;9.27;5.00;;;-0.20;99.90;;;;;;4175502;28;20455;-77
2024/03/19 05:15:11;;;;;;;11.53;5.43;;;-0.20;99.90;;;;;;4155768;28;20555;-77
2024/03/19 05:17:14;;;;;;;11.27;5.30;;;-0.20;99.90;;;;;;4160615;28;20452;-76
2024/03/19 05:19:16;;;;;;;10.43;5.10;;;-0.30;99.90;;;;;;4156236;28;20472;-77
2024/03/19 05:21:18;;;;;;;9.43;5.17;;;-0.30;99.90;;;;;;4171916;28;20446;-76
2024/03/19 05:23:20;;;;;;;12.23;5.30;;;-0.30;99.90;;;;;;4160014;28;20456;-77
2024/03/19 05:25:22;;;;;;;9.53;5.27;;;-0.20;99.90;;;;;;4161350;28;20817;-77
2024/03/19 05:27:24;;;;;;;12.50;5.37;;;-0.30;99.90;;;;;;4161970;28;20964;-78
2024/03/19 05:29:25;;;;;;;10.97;5.40;;;-0.10;99.90;;;;;;4164496;28;20844;-77
2024/03/19 05:31:30;;;;;;;12.83;5.70;;;-0.10;99.90;;;;;;4163974;28;20473;-77
2024/03/19 05:33:33;;;;;;;12.53;5.40;;;-0.30;99.90;;;;;;4167603;28;20484;-77
2024/03/19 05:35:35;;;;;;;12.20;5.37;;;-0.30;99.90;;;;;;4167437;28;20456;-77
2024/03/19 05:37:37;;;;;;;13.60;5.57;;;-0.30;99.90;;;;;;4165114;28;20452;-77
2024/03/19 05:39:40;;;;;;;11.17;5.67;;;-0.30;99.90;;;;;;4167093;28;20461;-78
2024/03/19 05:41:42;;;;;;;9.93;5.20;;;-0.30;99.90;;;;;;4167072;28;20461;-78
2024/03/19 05:43:46;;;;;;;12.40;5.70;;;-0.30;99.90;;;;;;4163020;28;21208;-78
2024/03/19 05:45:48;;;;;;;12.60;5.67;;;-0.30;99.90;;;;;;4164211;28;20866;-78
2024/03/19 05:47:49;;;;;;;10.03;5.23;;;-0.30;99.90;;;;;;4161069;28;20496;-78
2024/03/19 05:49:51;;;;;;;10.07;5.27;;;-0.30;99.90;;;;;;4165881;28;20452;-78
2024/03/19 05:51:53;;;;;;;13.27;6.20;;;-0.30;99.90;;;;;;4162386;28;20206;-78
2024/03/19 05:53:55;;;;;;;13.73;6.00;;;-0.30;99.90;;;;;;4167467;28;20527;-78
2024/03/19 05:55:58;;;;;;;11.17;5.70;;;-0.30;99.90;;;;;;4180861;28;20441;-78
2024/03/19 05:58:00;;;;;;;11.97;6.10;;;-0.30;99.90;;;;;;4180692;28;20487;-78
2024/03/19 06:00:01;;;;;;;8.53;5.13;;;-0.20;99.90;;;;;;4166987;28;20442;-78
2024/03/19 06:02:06;;;;;;;11.43;5.50;;;-0.30;99.90;;;;;;4165722;28;20464;-78
2024/03/19 06:04:08;;;;;;;11.17;5.47;;;-0.20;99.90;;;;;;4173765;28;20523;-78
2024/03/19 06:06:10;;;;;;;12.20;5.77;;;-0.20;99.90;;;;;;4178738;28;20650;-76
2024/03/19 06:08:12;;;;;;;12.03;6.17;;;-0.10;99.90;;;;;;4181795;28;20843;-77
2024/03/19 06:10:14;;;;;;;12.73;5.47;;;-0.20;99.90;;;;;;4182746;28;20456;-77
2024/03/19 06:12:17;;;;;;;10.50;5.67;;;-0.20;99.90;;;;;;4189108;28;20440;-77
2024/03/19 06:14:19;;;;;;;15.93;6.53;;;-0.20;99.90;;;;;;4174941;28;20452;-77
2024/03/19 06:16:20;;;;;;;10.23;5.53;;;-0.20;99.90;;;;;;4164041;28;20441;-78
2024/03/19 06:18:22;;;;;;;11.40;5.77;;;-0.20;99.90;;;;;;4165376;28;20814;-78
2024/03/19 06:20:24;;;;;;;12.33;5.93;;;-0.20;99.90;;;;;;4164560;28;20448;-78
2024/03/19 06:22:26;;;;;;;13.50;6.00;;;0.70;99.90;;;;;;4178693;28;20456;-78
2024/03/19 06:24:28;;;;;;;11.43;5.87;;;-0.20;99.90;;;;;;4164252;28;20455;-77
2024/03/19 06:26:30;;;;;;;12.17;5.90;;;-0.10;99.90;;;;;;4161532;28;20999;-77
2024/03/19 06:28:34;;;;;;;14.03;6.77;;;-0.20;99.90;;;;;;4162793;28;20520;-77
2024/03/19 06:30:36;;;;;;;13.47;6.67;;;-0.10;99.90;;;;;;4162468;28;20548;-77
2024/03/19 06:32:38;;;;;;;12.30;6.50;;;-0.10;99.90;;;;;;4160428;28;20497;-77
2024/03/19 06:34:40;;;;;;;15.97;6.50;;;-0.10;99.90;;;;;;4163112;28;20453;-78
2024/03/19 06:36:41;;;;;;;13.37;6.67;;;-0.10;99.90;;;;;;4164405;28;20449;-78
2024/03/19 06:38:43;;;;;;;12.90;6.10;;;-0.10;99.90;;;;;;4164329;28;20461;-77
2024/03/19 06:40:46;;;;;;;10.67;5.63;;;-0.10;99.90;;;;;;4158285;28;21125;-78
2024/03/19 06:42:47;;;;;;;10.27;5.97;;;-0.10;99.90;;;;;;4165395;28;20468;-78
2024/03/19 06:44:51;;;;;;;11.40;5.50;;;-0.10;99.90;;;;;;4175732;28;20882;-78
2024/03/19 06:46:53;;;;;;;12.00;5.70;;;0.00;99.90;;;;;;4161181;28;20492;-77
2024/03/19 06:48:55;;;;;;;11.90;6.10;;;-0.10;99.90;;;;;;4175559;28;20933;-77
2024/03/19 06:50:56;;;;;;;15.53;7.33;;;0.10;99.90;;;;;;4161606;28;20500;-77
2024/03/19 06:52:58;;;;;;;13.43;6.77;;;-0.10;99.90;;;;;;4162927;28;20446;-74
2024/03/19 06:54:59;;;;;;;11.23;5.90;;;0.00;99.90;;;;;;4162518;28;20851;-77
2024/03/19 06:57:01;;;;;;;14.40;6.97;;;0.00;99.90;;;;;;4174890;28;20456;-75
2024/03/19 06:59:03;;;;;;;12.73;6.37;;;0.00;99.90;;;;;;4160016;28;20491;-75
2024/03/19 07:01:09;;;;;;;14.20;6.43;;;0.10;99.90;;;;;;4160350;28;20445;-75
2024/03/19 07:03:10;;;;;;;14.50;6.50;;;0.10;99.90;;;;;;4172612;28;21326;-77
2024/03/19 07:05:12;;;;;;;11.00;6.03;;;0.10;99.90;;;;;;4160193;28;20457;-77
2024/03/19 07:07:14;;;;;;;11.23;6.17;;;0.10;99.90;;;;;;4158467;28;20542;-75
2024/03/19 07:09:18;;;;;;;12.67;6.00;;;0.20;99.90;;;;;;4159654;28;20497;-75
2024/03/19 07:11:20;;;;;;;14.00;5.90;;;0.20;99.90;;;;;;4146356;28;20489;-75
2024/03/19 07:13:22;;;;;;;11.10;5.83;;;0.30;99.90;;;;;;4149934;28;21040;-75
2024/03/19 07:15:24;;;;;;;16.03;6.23;;;0.30;99.90;;;;;;4159224;28;20466;-75
2024/03/19 07:17:30;;;;;;;11.87;5.80;;;0.30;99.90;;;;;;4157380;28;20450;-74
2024/03/19 07:19:32;;;;;;;14.77;6.70;;;0.30;99.90;;;;;;4159199;28;20449;-74
2024/03/19 07:21:34;;;;;;;10.83;6.20;;;0.40;99.90;;;;;;4158019;28;21072;-74
2024/03/19 07:23:36;;;;;;;11.87;5.87;;;0.40;99.90;;;;;;4162340;28;20458;-74
2024/03/19 07:25:38;;;;;;;11.53;5.80;;;0.50;99.90;;;;;;4157910;28;20930;-75
2024/03/19 07:27:40;;;;;;;11.37;6.13;;;0.40;99.90;;;;;;4163263;28;20517;-74
2024/03/19 07:29:42;;;;;;;10.03;6.27;;;0.50;99.90;;;;;;4162130;28;20879;-75
2024/03/19 07:31:44;;;;;;;10.57;5.73;;;0.50;99.90;;;;;;4160310;28;20462;-75
2024/03/19 07:33:48;;;;;;;15.70;7.50;;;0.50;99.90;;;;;;4159202;28;20534;-75
2024/03/19 07:35:48;;;;;;;15.23;6.73;;;0.60;99.90;;;;;;4160427;28;20536;-75
2024/03/19 07:37:50;;;;;;;15.80;6.20;;;0.60;99.90;;;;;;4158930;28;20488;-75
2024/03/19 07:39:55;;;;;;;12.73;6.07;;;0.90;99.90;;;;;;4158847;28;20231;-75
2024/03/19 07:41:58;;;;;;;14.97;7.10;;;0.70;99.90;;;;;;4158186;28;20430;-75
2024/03/19 07:43:59;;;;;;;11.70;6.30;;;0.70;99.90;;;;;;4156961;28;20467;-75
2024/03/19 07:46:01;;;;;;;10.73;6.23;;;0.80;99.90;;;;;;4156577;28;20485;-75
2024/03/19 07:48:04;;;;;;;12.13;6.20;;;0.80;99.90;;;;;;4156920;28;20494;-75
2024/03/19 07:50:10;;;;;;;13.77;6.70;;;0.80;99.90;;;;;;4156924;28;20980;-75
2024/03/19 07:52:12;;;;;;;11.47;6.03;;;0.90;99.90;;;;;;4173974;28;20481;-74
2024/03/19 07:54:14;;;;;;;14.57;6.87;;;0.90;99.90;;;;;;4155380;28;20501;-75
2024/03/19 07:56:15;;;;;;;16.80;6.50;;;1.00;99.90;;;;;;4159454;28;20545;-74
2024/03/19 07:58:17;;;;;;;11.23;6.03;;;1.10;99.90;;;;;;4156863;28;20473;-74
2024/03/19 08:00:19;;;;;;;13.60;6.20;;;1.20;99.90;;;;;;4174420;28;20682;-74
2024/03/19 08:02:21;;;;;;;14.13;6.00;;;1.30;99.90;;;;;;4162603;28;20525;-75
2024/03/19 08:04:22;;;;;;;11.90;5.63;;;1.30;99.90;;;;;;4162602;28;21252;-74
2024/03/19 08:06:25;;;;;;;11.47;6.40;;;1.40;99.90;;;;;;4159901;28;20450;-74
2024/03/19 08:08:26;;;;;;;12.03;5.70;;;1.50;99.90;;;;;;4157700;28;20314;-75
2024/03/19 08:10:28;;;;;;;14.57;5.67;;;1.50;99.90;;;;;;4157870;28;20454;-75
2024/03/19 08:12:30;;;;;;;11.83;5.57;;;1.60;99.90;;;;;;4160977;28;20488;-76
2024/03/19 08:14:34;;;;;;;9.40;5.73;;;1.70;99.90;;;;;;4157761;28;20537;-75
2024/03/19 08:16:36;;;;;;;11.67;5.10;;;1.80;99.90;;;;;;4158545;28;20522;-75
2024/03/19 08:18:38;;;;;;;10.80;5.43;;;1.90;99.90;;;;;;4164193;28;20480;-75
2024/03/19 08:20:39;;;;;;;12.87;5.80;;;1.90;99.90;;;;;;4172740;28;20458;-75
2024/03/19 08:22:42;;;;;;;10.57;5.30;;;2.00;99.90;;;;;;4174639;28;20446;-75
2024/03/19 08:24:46;;;;;;;9.77;5.50;;;2.10;99.90;;;;;;4181388;28;20477;-77
2024/03/19 08:26:48;;;;;;;11.03;5.23;;;2.20;99.90;;;;;;4177157;28;20446;-75
2024/03/19 08:28:50;;;;;;;10.27;5.23;;;2.30;99.90;;;;;;4179371;28;20493;-75
2024/03/19 08:30:52;;;;;;;12.13;5.27;;;2.30;99.90;;;;;;4160960;28;21116;-75
2024/03/19 08:32:55;;;;;;;10.33;5.40;;;2.40;99.90;;;;;;4161100;28;21044;-75
2024/03/19 08:35:02;;;;;;;11.03;5.73;;;2.50;99.90;;;;;;4161411;28;20929;-76
2024/03/19 08:37:05;;;;;;;9.70;5.20;;;2.50;99.90;;;;;;4164174;28;20822;-75
2024/03/19 08:39:10;;;;;;;11.60;5.60;;;2.60;99.90;;;;;;4158153;28;20473;-73
2024/03/19 08:41:11;;;;;;;8.47;4.57;;;2.80;99.90;;;;;;4158893;28;20473;-74
2024/03/19 08:43:14;;;;;;;10.20;5.50;;;2.90;99.90;;;;;;4161113;28;21025;-76
2024/03/19 08:45:15;;;;;;;9.27;5.33;;;3.00;99.90;;;;;;4173185;28;20453;-76
2024/03/19 08:47:20;;;;;;;8.73;5.17;;;3.10;99.90;;;;;;4158915;28;20579;-76
2024/03/19 08:49:22;;;;;;;11.20;5.70;;;3.10;99.90;;;;;;4159764;28;20507;-74
2024/03/19 08:51:24;;;;;;;9.10;4.77;;;3.20;99.90;;;;;;4156550;28;20882;-74
2024/03/19 08:53:26;;;;;;;11.67;5.37;;;3.40;99.90;;;;;;4156078;28;20532;-77
2024/03/19 08:55:30;;;;;;;9.20;4.90;;;3.40;99.90;;;;;;4156691;28;20818;-74
2024/03/19 08:57:32;;;;;;;11.20;5.33;;;3.50;99.90;;;;;;4157664;28;20864;-74
2024/03/19 08:59:34;;;;;;;10.80;4.93;;;3.60;99.90;;;;;;4159314;28;20450;-74
2024/03/19 09:01:36;;;;;;;10.97;4.67;;;3.60;99.90;;;;;;4164300;28;20451;-74
2024/03/19 09:03:37;;;;;;;10.17;4.80;;;3.70;99.90;;;;;;4159563;28;20877;-74
2024/03/19 09:05:39;;;;;;;9.83;5.23;;;3.70;99.90;;;;;;4159630;28;20440;-74
2024/03/19 09:07:46;;;;;;;11.47;6.03;;;3.80;99.90;;;;;;4157794;28;20923;-75
2024/03/19 09:09:50;;;;;;;13.43;5.93;;;3.70;99.90;;;;;;4155616;28;20457;-74
2024/03/19 09:12:12;;;;;;;9.73;4.93;;;3.90;99.90;;;;;;4158860;28;20845;-75
2024/03/19 09:14:14;;;;;;;6.97;4.23;;;4.00;99.90;;;;;;4159888;28;20543;-74
2024/03/19 09:16:15;;;;;;;5.50;3.37;;;4.10;99.90;;;;;;4156683;28;20521;-74
2024/03/19 09:18:17;;;;;;;7.77;3.97;;;4.20;99.90;;;;;;4156665;28;20458;-74
2024/03/19 09:20:23;;;;;;;9.57;4.47;;;4.20;99.90;;;;;;4154733;28;20586;-74
2024/03/19 09:22:25;;;;;;;9.97;4.33;;;4.40;99.90;;;;;;4158286;28;20489;-74
2024/03/19 09:24:27;;;;;;;9.67;4.30;;;4.50;99.90;;;;;;4155048;28;20460;-75
2024/03/19 09:26:29;;;;;;;8.33;4.03;;;4.50;99.90;;;;;;4156658;28;20511;-75
2024/03/19 09:28:32;;;;;;;7.37;4.03;;;4.60;99.90;;;;;;4157426;28;20592;-75
2024/03/19 09:30:34;;;;;;;7.60;4.50;;;4.70;99.90;;;;;;4157685;28;20952;-75
2024/03/19 09:32:36;;;;;;;8.20;4.23;;;4.70;99.90;;;;;;4156802;28;20515;-75
2024/03/19 09:34:38;;;;;;;7.60;4.10;;;4.80;99.90;;;;;;4156989;28;20453;-75
2024/03/19 09:36:40;;;;;;;6.47;3.80;;;4.90;99.90;;;;;;4159146;28;20477;-75
2024/03/19 09:38:48;;;;;;;8.90;4.00;;;4.90;99.90;;;;;;4159523;28;20880;-76
2024/03/19 09:40:55;;;;;;;6.27;3.83;;;5.00;99.90;;;;;;4158323;28;20480;-75
2024/03/19 09:42:58;;;;;;;6.77;3.90;;;5.00;99.90;;;;;;4158895;28;20464;-75
2024/03/19 09:45:01;;;;;;;7.13;3.87;;;5.10;99.90;;;;;;4159129;28;20462;-75
2024/03/19 09:47:05;;;;;;;6.37;3.47;;;5.20;99.90;;;;;;4158892;28;20481;-75
2024/03/19 09:49:13;;;;;;;7.50;3.50;;;5.30;99.90;;;;;;4158335;28;20483;-75
2024/03/19 09:51:20;;;;;;;5.40;3.73;;;5.30;99.90;;;;;;4154887;28;20843;-75
2024/03/19 09:53:24;;;;;;;8.43;3.57;;;5.40;99.90;;;;;;4156088;28;20470;-75
2024/03/19 09:55:27;;;;;;;6.80;3.40;;;5.50;99.90;;;;;;4153774;28;20442;-75
2024/03/19 09:57:28;;;;;;;6.30;3.90;;;5.60;99.90;;;;;;4159030;28;20463;-75
2024/03/19 09:59:31;;;;;;;10.23;4.13;;;5.70;99.90;;;;;;4157321;28;20490;-75
2024/03/19 10:01:35;;;;;;;6.37;3.80;;;5.80;99.90;;;;;;4157504;28;20203;-80
2024/03/19 10:03:42;;;;;;;7.23;3.13;;;5.80;99.90;;;;;;4162319;28;20479;-79
2024/03/19 10:05:44;;;;;;;6.63;3.27;;;6.00;99.90;;;;;;4165116;28;21002;-79
2024/03/19 10:07:46;;;;;;;8.03;3.60;;;6.00;99.90;;;;;;4162416;28;20714;-79
2024/03/19 10:09:51;;;;;;;7.07;3.43;;;6.10;99.90;;;;;;4166118;28;20207;-78
2024/03/19 10:11:55;;;;;;;7.33;3.90;;;6.20;99.90;;;;;;4157173;28;20236;-77
2024/03/19 10:13:56;;;;;;;7.30;3.87;;;6.30;99.90;;;;;;4165348;28;20567;-78
2024/03/19 10:15:59;;;;;;;6.83;3.70;;;6.40;99.90;;;;;;4165735;28;20218;-79
2024/03/19 10:18:02;;;;;;;8.10;4.00;;;6.50;99.90;;;;;;4165878;28;21588;-79
2024/03/19 10:20:11;;;;;;;9.67;4.50;;;6.60;99.90;;;;;;4168775;28;20559;-79
2024/03/19 10:22:13;;;;;;;7.67;4.03;;;6.70;99.90;;;;;;4159602;28;20204;-79
2024/03/19 10:24:16;;;;;;;8.57;4.10;;;6.80;99.90;;;;;;4159669;28;20231;-79
2024/03/19 10:26:20;;;;;;;8.87;4.40;;;6.90;99.90;;;;;;4162492;28;20211;-79
2024/03/19 10:28:22;;;;;;;7.70;4.03;;;7.00;99.90;;;;;;4160580;28;20228;-79
2024/03/19 10:30:25;;;;;;;9.83;4.10;;;7.10;99.90;;;;;;4164971;28;20823;-79
2024/03/19 10:32:26;;;;;;;6.50;3.77;;;7.20;99.90;;;;;;4162316;28;20310;-79
2024/03/19 10:34:32;;;;;;;5.60;3.60;;;7.30;99.90;;;;;;4179758;28;20231;-79
2024/03/19 10:36:34;;;;;;;7.00;3.57;;;7.40;99.90;;;;;;4170088;28;20207;-79
2024/03/19 10:38:36;;;;;;;6.60;4.03;;;7.50;99.90;;;;;;4171925;28;20303;-80
2024/03/19 10:40:38;;;;;;;5.40;3.70;;;7.60;99.90;;;;;;4172550;28;20227;-79